createdAt,value
2022-08-19T00:01:26.448Z,8.88
2022-08-19T00:04:01.732Z,9.18
2022-08-19T00:06:30.602Z,8.30
2022-08-19T00:08:58.937Z,9.30
2022-08-19T00:11:27.500Z,9.32
2022-08-19T00:13:57.086Z,8.80
2022-08-19T00:16:26.471Z,8.65
2022-08-19T00:18:54.827Z,9.48
2022-08-19T00:21:22.140Z,9.07
2022-08-19T00:23:49.045Z,9.13
2022-08-19T00:26:15.889Z,9.30
2022-08-19T00:28:42.792Z,8.70
2022-08-19T00:31:10.455Z,7.85
2022-08-19T00:33:37.859Z,8.80
2022-08-19T00:36:08.193Z,7.53
2022-08-19T00:38:38.058Z,8.05
2022-08-19T00:41:06.842Z,8.05
2022-08-19T00:43:34.351Z,7.97
2022-08-19T00:46:02.461Z,8.00
2022-08-19T00:48:29.339Z,8.05
2022-08-19T00:50:56.629Z,7.65
2022-08-19T00:53:27.469Z,7.95
2022-08-19T00:55:57.748Z,7.85
2022-08-19T00:58:31.064Z,8.57
2022-08-19T01:00:57.905Z,8.60
2022-08-19T01:03:24.788Z,8.60
2022-08-19T01:05:54.308Z,8.75
2022-08-19T01:08:22.109Z,9.02
2022-08-19T01:10:53.305Z,9.32
2022-08-19T01:13:23.831Z,9.40
2022-08-19T01:15:55.916Z,8.38
2022-08-19T01:18:24.304Z,9.27
2022-08-19T01:20:52.990Z,8.52
2022-08-19T01:23:19.804Z,8.80
2022-08-19T01:25:53.415Z,8.80
2022-08-19T01:28:33.903Z,8.50
2022-08-19T01:31:27.238Z,8.35
2022-08-19T01:33:57.162Z,8.88
2022-08-19T01:36:38.024Z,8.30
2022-08-19T01:39:10.017Z,9.27
2022-08-19T01:41:37.391Z,9.00
2022-08-19T01:44:18.493Z,9.07
2022-08-19T01:46:48.461Z,9.15
2022-08-19T01:49:15.896Z,8.35
2022-08-19T01:51:42.663Z,7.82
2022-08-19T01:54:12.530Z,7.97
2022-08-19T01:56:39.720Z,8.32
2022-08-19T01:59:12.059Z,8.57
2022-08-19T02:01:39.027Z,8.30
2022-08-19T02:04:06.787Z,9.20
2022-08-19T02:06:34.232Z,8.82
2022-08-19T02:09:02.110Z,9.90
2022-08-19T02:11:32.933Z,9.70
2022-08-19T02:14:01.014Z,9.82
2022-08-19T02:16:27.919Z,9.48
2022-08-19T02:18:55.774Z,9.52
2022-08-19T02:21:24.949Z,9.45
2022-08-19T02:23:52.752Z,9.73
2022-08-19T02:26:20.386Z,9.88
2022-08-19T02:28:47.485Z,10.20
2022-08-19T02:31:17.372Z,9.48
2022-08-19T02:33:44.812Z,9.73
2022-08-19T02:36:13.053Z,10.00
2022-08-19T02:38:42.460Z,9.98
2022-08-19T02:41:18.743Z,9.43
2022-08-19T02:44:23.012Z,9.27
2022-08-19T02:46:34.266Z,8.70
2022-08-19T02:49:08.297Z,10.48
2022-08-19T02:51:41.557Z,9.07
2022-08-19T02:54:10.648Z,9.63
2022-08-19T02:56:39.170Z,9.90
2022-08-19T02:59:11.297Z,10.85
2022-08-19T03:01:41.807Z,10.75
2022-08-19T03:04:14.371Z,10.20
2022-08-19T03:06:44.129Z,10.63
2022-08-19T03:09:11.956Z,9.07
2022-08-19T03:11:39.901Z,10.65
2022-08-19T03:14:09.565Z,9.82
2022-08-19T03:16:45.455Z,11.13
2022-08-19T03:19:12.340Z,10.07
2022-08-19T03:21:40.692Z,11.10
2022-08-19T03:24:09.583Z,11.10
2022-08-19T03:26:40.888Z,9.82
2022-08-19T03:29:08.634Z,11.35
2022-08-19T03:31:45.077Z,10.65
2022-08-19T03:34:22.687Z,10.40
2022-08-19T03:36:49.676Z,11.38
2022-08-19T03:39:17.461Z,10.50
2022-08-19T03:41:48.565Z,10.77
2022-08-19T03:44:19.561Z,11.02
2022-08-19T03:46:58.499Z,9.93
2022-08-19T03:49:29.066Z,11.32
2022-08-19T03:51:57.839Z,11.85
2022-08-19T03:54:26.045Z,11.32
2022-08-19T03:56:54.691Z,11.55
2022-08-19T03:59:26.949Z,12.13
2022-08-19T04:01:56.749Z,11.63
2022-08-19T04:04:24.158Z,10.93
2022-08-19T04:09:19.557Z,12.13
2022-08-19T04:11:54.751Z,11.50
2022-08-19T04:14:26.941Z,12.27
2022-08-19T04:16:54.468Z,12.18
2022-08-19T04:19:21.822Z,10.80
2022-08-19T04:21:51.104Z,10.88
2022-08-19T04:24:19.622Z,11.38
2022-08-19T04:26:47.408Z,10.55
2022-08-19T04:29:18.314Z,11.77
2022-08-19T04:31:46.270Z,11.80
2022-08-19T04:34:16.168Z,10.88
2022-08-19T04:36:45.610Z,9.90
2022-08-19T04:39:17.600Z,11.80
2022-08-19T04:42:04.247Z,12.10
2022-08-19T04:44:33.484Z,12.25
2022-08-19T04:47:11.400Z,12.55
2022-08-19T04:49:38.620Z,10.68
2022-08-19T04:52:05.491Z,11.77
2022-08-19T04:54:38.220Z,10.90
2022-08-19T04:57:08.513Z,11.98
2022-08-19T04:59:36.640Z,11.95
2022-08-19T05:02:05.045Z,12.68
2022-08-19T05:04:33.203Z,12.02
2022-08-19T05:07:02.066Z,12.63
2022-08-19T05:09:39.066Z,12.82
2022-08-19T05:12:18.787Z,12.02
2022-08-19T05:14:48.282Z,11.52
2022-08-19T05:17:34.949Z,13.30
2022-08-19T05:20:21.091Z,13.80
2022-08-19T05:22:48.723Z,14.45
2022-08-19T05:25:22.227Z,12.52
2022-08-19T05:27:49.378Z,13.20
2022-08-19T05:30:17.125Z,12.07
2022-08-19T05:32:44.606Z,12.70
2022-08-19T05:35:12.857Z,13.23
2022-08-19T05:37:43.768Z,13.73
2022-08-19T05:40:13.649Z,13.68
2022-08-19T05:42:40.453Z,13.45
2022-08-19T05:45:08.214Z,15.07
2022-08-19T05:47:36.197Z,12.30
2022-08-19T05:50:09.666Z,12.95
2022-08-19T05:52:39.297Z,15.13
2022-08-19T05:55:11.501Z,15.02
2022-08-19T05:57:38.514Z,15.18
2022-08-19T06:00:10.785Z,16.23
2022-08-19T06:02:38.242Z,16.20
2022-08-19T06:05:08.339Z,16.25
2022-08-19T06:10:08.333Z,17.02
2022-08-19T06:12:37.525Z,18.30
2022-08-19T06:15:12.224Z,18.25
2022-08-19T06:17:39.322Z,19.98
2022-08-19T06:20:08.716Z,22.00
2022-08-19T06:22:54.913Z,22.77
2022-08-19T06:25:22.069Z,24.45
2022-08-19T06:28:13.377Z,25.52
2022-08-19T06:30:37.488Z,25.25
2022-08-19T06:33:04.347Z,26.80
2022-08-19T06:35:31.598Z,28.95
2022-08-19T06:37:58.612Z,30.77
2022-08-19T06:40:26.672Z,30.63
2022-08-19T06:42:54.360Z,34.15
2022-08-19T06:45:24.854Z,33.85
2022-08-19T06:51:08.583Z,36.40
2022-08-19T06:53:35.926Z,32.78
2022-08-19T06:56:05.774Z,38.30
2022-08-19T06:58:33.205Z,33.05
2022-08-19T07:01:07.158Z,37.65
2022-08-19T07:03:38.333Z,35.08
2022-08-19T07:06:09.838Z,38.35
2022-08-19T07:08:49.261Z,36.75
2022-08-19T07:11:21.730Z,37.97
2022-08-19T07:13:52.280Z,39.50
2022-08-19T07:16:27.339Z,35.92
2022-08-19T07:18:57.721Z,38.38
2022-08-19T07:21:29.468Z,40.35
2022-08-19T07:24:02.952Z,41.15
2022-08-19T07:26:39.975Z,35.30
2022-08-19T07:29:09.884Z,34.33
2022-08-19T07:31:37.910Z,35.78
2022-08-19T07:34:11.531Z,38.10
2022-08-19T07:36:41.867Z,38.90
2022-08-19T07:39:13.020Z,39.63
2022-08-19T07:41:40.402Z,30.85
2022-08-19T07:44:09.359Z,38.25
2022-08-19T07:46:39.741Z,33.67
2022-08-19T07:49:08.144Z,31.27
2022-08-19T07:51:36.334Z,32.78
2022-08-19T07:54:04.240Z,33.65
2022-08-19T07:56:34.384Z,34.85
2022-08-19T07:59:01.774Z,32.17
2022-08-19T08:01:29.384Z,34.05
2022-08-19T08:04:16.735Z,30.25
2022-08-19T08:07:03.611Z,31.20
2022-08-19T08:09:39.346Z,27.50
2022-08-19T08:12:30.753Z,30.60
2022-08-19T08:14:58.987Z,27.77
2022-08-19T08:17:48.756Z,28.85
2022-08-19T08:20:16.158Z,26.15
2022-08-19T08:23:06.480Z,27.25
2022-08-19T08:25:34.390Z,27.58
2022-08-19T08:28:03.896Z,26.05
2022-08-19T08:30:33.414Z,25.02
2022-08-19T08:33:02.470Z,30.55
2022-08-19T08:35:29.665Z,28.70
2022-08-19T08:37:57.802Z,24.45
2022-08-19T08:41:04.893Z,20.75
2022-08-19T08:43:38.485Z,26.30
2022-08-19T08:46:30.569Z,27.08
2022-08-19T08:49:34.568Z,23.10
2022-08-19T08:52:07.796Z,26.27
2022-08-19T08:54:48.940Z,28.42
2022-08-19T08:57:40.725Z,27.95
2022-08-19T09:00:15.830Z,25.80
2022-08-19T09:02:44.008Z,24.95
2022-08-19T09:05:16.508Z,20.30
2022-08-19T09:07:58.709Z,31.00
2022-08-19T09:10:43.967Z,24.85
2022-08-19T09:13:50.228Z,23.60
2022-08-19T09:16:28.001Z,22.00
2022-08-19T09:19:07.746Z,25.38
2022-08-19T09:21:35.898Z,21.98
2022-08-19T09:24:04.684Z,20.20
2022-08-19T09:26:48.366Z,17.42
2022-08-19T09:29:19.692Z,21.40
2022-08-19T09:31:52.235Z,18.48
2022-08-19T09:34:22.220Z,18.02
2022-08-19T09:36:54.682Z,16.45
2022-08-19T09:39:22.585Z,16.05
2022-08-19T09:41:50.994Z,17.88
2022-08-19T09:44:18.930Z,15.00
2022-08-19T09:46:48.191Z,13.50
2022-08-19T09:49:18.366Z,11.05
2022-08-19T09:51:50.356Z,17.67
2022-08-19T09:54:23.446Z,14.00
2022-08-19T09:56:51.242Z,12.40
2022-08-19T09:59:18.124Z,16.60
2022-08-19T10:01:44.973Z,18.70
2022-08-19T10:04:19.750Z,16.10
2022-08-19T10:06:57.914Z,12.07
2022-08-19T10:09:34.067Z,13.63
2022-08-19T10:12:02.983Z,13.48
2022-08-19T10:14:30.152Z,16.00
2022-08-19T10:16:57.590Z,12.23
2022-08-19T10:19:26.468Z,15.98
2022-08-19T10:21:55.570Z,13.73
2022-08-19T10:24:28.774Z,16.17
2022-08-19T10:26:58.852Z,13.98
2022-08-19T10:29:32.304Z,14.32
2022-08-19T10:32:03.226Z,10.85
2022-08-19T10:34:31.408Z,14.70
2022-08-19T10:37:01.258Z,13.30
2022-08-19T10:39:31.262Z,10.02
2022-08-19T10:41:59.022Z,12.60
2022-08-19T10:44:26.457Z,10.35
